sensor_id;sensor_type;location;lat;lon;timestamp;temperature;humidity
11003;DHT22;5554;55.796;13.090;2022-10-23T00:00:19;20.20;99.90
11003;DHT22;5554;55.796;13.090;2022-10-23T00:02:50;20.10;99.90
11003;DHT22;5554;55.796;13.090;2022-10-23T00:05:17;20.10;99.90
11003;DHT22;5554;55.796;13.090;2022-10-23T00:07:44;20.10;99.90
11003;DHT22;5554;55.796;13.090;2022-10-23T00:10:15;20.20;99.90
11003;DHT22;5554;55.796;13.090;2022-10-23T00:12:42;20.10;99.90
11003;DHT22;5554;55.796;13.090;2022-10-23T00:15:09;20.20;99.90
11003;DHT22;5554;55.796;13.090;2022-10-23T00:17:35;20.20;99.90
11003;DHT22;5554;55.796;13.090;2022-10-23T00:20:03;20.20;99.90
11003;DHT22;5554;55.796;13.090;2022-10-23T00:22:29;20.20;99.90
11003;DHT22;5554;55.796;13.090;2022-10-23T00:24:56;20.30;99.90
11003;DHT22;5554;55.796;13.090;2022-10-23T00:27:24;20.30;99.90
11003;DHT22;5554;55.796;13.090;2022-10-23T00:29:51;20.30;99.90
11003;DHT22;5554;55.796;13.090;2022-10-23T00:32:18;20.20;99.90
11003;DHT22;5554;55.796;13.090;2022-10-23T00:34:44;20.30;99.90
11003;DHT22;5554;55.796;13.090;2022-10-23T00:37:11;20.40;99.90
11003;DHT22;5554;55.796;13.090;2022-10-23T00:39:38;20.40;99.90
11003;DHT22;5554;55.796;13.090;2022-10-23T00:42:04;20.40;99.90
11003;DHT22;5554;55.796;13.090;2022-10-23T00:47:18;20.50;99.90
11003;DHT22;5554;55.796;13.090;2022-10-23T00:49:44;20.50;99.90
11003;DHT22;5554;55.796;13.090;2022-10-23T00:52:11;20.50;99.90
11003;DHT22;5554;55.796;13.090;2022-10-23T00:54:38;20.50;99.90
11003;DHT22;5554;55.796;13.090;2022-10-23T00:57:06;20.70;99.90
11003;DHT22;5554;55.796;13.090;2022-10-23T00:59:34;20.70;99.90
11003;DHT22;5554;55.796;13.090;2022-10-23T01:02:01;20.70;99.90
11003;DHT22;5554;55.796;13.090;2022-10-23T01:04:29;20.70;99.90
11003;DHT22;5554;55.796;13.090;2022-10-23T01:06:57;20.80;99.90
11003;DHT22;5554;55.796;13.090;2022-10-23T01:09:27;20.70;99.90
11003;DHT22;5554;55.796;13.090;2022-10-23T01:11:55;20.80;99.90
11003;DHT22;5554;55.796;13.090;2022-10-23T01:14:26;20.70;99.90
11003;DHT22;5554;55.796;13.090;2022-10-23T01:16:57;20.80;99.90
11003;DHT22;5554;55.796;13.090;2022-10-23T01:19:26;20.80;99.90
11003;DHT22;5554;55.796;13.090;2022-10-23T01:22:04;20.80;99.90
11003;DHT22;5554;55.796;13.090;2022-10-23T01:24:40;20.80;99.90
11003;DHT22;5554;55.796;13.090;2022-10-23T01:27:15;20.80;99.90
11003;DHT22;5554;55.796;13.090;2022-10-23T01:29:42;20.70;99.90
11003;DHT22;5554;55.796;13.090;2022-10-23T01:32:11;20.80;99.90
11003;DHT22;5554;55.796;13.090;2022-10-23T01:34:41;20.90;99.90
11003;DHT22;5554;55.796;13.090;2022-10-23T01:37:10;21.00;99.90
11003;DHT22;5554;55.796;13.090;2022-10-23T01:39:38;20.90;99.90
11003;DHT22;5554;55.796;13.090;2022-10-23T01:42:07;20.90;99.90
11003;DHT22;5554;55.796;13.090;2022-10-23T01:44:36;20.90;99.90
11003;DHT22;5554;55.796;13.090;2022-10-23T01:47:06;20.90;99.90
11003;DHT22;5554;55.796;13.090;2022-10-23T01:49:33;20.90;99.90
11003;DHT22;5554;55.796;13.090;2022-10-23T01:52:02;20.90;99.90
11003;DHT22;5554;55.796;13.090;2022-10-23T01:54:32;20.80;99.90
11003;DHT22;5554;55.796;13.090;2022-10-23T01:56:59;20.90;99.90
11003;DHT22;5554;55.796;13.090;2022-10-23T01:59:26;20.80;99.90
11003;DHT22;5554;55.796;13.090;2022-10-23T02:01:56;20.80;99.90
11003;DHT22;5554;55.796;13.090;2022-10-23T02:04:24;20.70;99.90
11003;DHT22;5554;55.796;13.090;2022-10-23T02:06:52;20.80;99.90
11003;DHT22;5554;55.796;13.090;2022-10-23T02:09:21;20.80;99.90
11003;DHT22;5554;55.796;13.090;2022-10-23T02:11:50;20.70;99.90
11003;DHT22;5554;55.796;13.090;2022-10-23T02:14:19;20.70;99.90
11003;DHT22;5554;55.796;13.090;2022-10-23T02:16:48;20.60;99.90
11003;DHT22;5554;55.796;13.090;2022-10-23T02:19:18;20.70;99.90
11003;DHT22;5554;55.796;13.090;2022-10-23T02:21:48;20.60;99.90
11003;DHT22;5554;55.796;13.090;2022-10-23T02:24:16;20.70;99.90
11003;DHT22;5554;55.796;13.090;2022-10-23T02:26:47;20.70;99.90
11003;DHT22;5554;55.796;13.090;2022-10-23T02:29:17;20.70;99.90
11003;DHT22;5554;55.796;13.090;2022-10-23T02:31:45;20.70;99.90
11003;DHT22;5554;55.796;13.090;2022-10-23T02:34:12;20.60;99.90
11003;DHT22;5554;55.796;13.090;2022-10-23T02:36:39;20.40;99.90
11003;DHT22;5554;55.796;13.090;2022-10-23T02:39:06;20.70;99.90
11003;DHT22;5554;55.796;13.090;2022-10-23T02:41:36;20.60;99.90
11003;DHT22;5554;55.796;13.090;2022-10-23T02:44:06;20.60;99.90
11003;DHT22;5554;55.796;13.090;2022-10-23T02:46:36;20.60;99.90
11003;DHT22;5554;55.796;13.090;2022-10-23T02:49:08;20.60;99.90
11003;DHT22;5554;55.796;13.090;2022-10-23T02:51:39;20.60;99.90
11003;DHT22;5554;55.796;13.090;2022-10-23T02:54:12;20.60;99.90
11003;DHT22;5554;55.796;13.090;2022-10-23T02:56:43;20.60;99.90
11003;DHT22;5554;55.796;13.090;2022-10-23T02:59:13;20.60;99.90
11003;DHT22;5554;55.796;13.090;2022-10-23T03:01:43;20.60;99.90
11003;DHT22;5554;55.796;13.090;2022-10-23T03:04:11;20.60;99.90
11003;DHT22;5554;55.796;13.090;2022-10-23T03:06:39;20.70;99.90
11003;DHT22;5554;55.796;13.090;2022-10-23T03:09:06;20.60;99.90
11003;DHT22;5554;55.796;13.090;2022-10-23T03:11:34;20.60;99.90
11003;DHT22;5554;55.796;13.090;2022-10-23T03:14:01;20.60;99.90
11003;DHT22;5554;55.796;13.090;2022-10-23T03:16:28;20.50;99.90
11003;DHT22;5554;55.796;13.090;2022-10-23T03:18:54;20.50;99.90
11003;DHT22;5554;55.796;13.090;2022-10-23T03:21:21;20.50;99.90
11003;DHT22;5554;55.796;13.090;2022-10-23T03:23:48;20.60;99.90
11003;DHT22;5554;55.796;13.090;2022-10-23T03:26:14;20.50;99.90
11003;DHT22;5554;55.796;13.090;2022-10-23T03:28:42;20.40;99.90
11003;DHT22;5554;55.796;13.090;2022-10-23T03:31:09;20.40;99.90
11003;DHT22;5554;55.796;13.090;2022-10-23T03:33:36;20.40;99.90
11003;DHT22;5554;55.796;13.090;2022-10-23T03:36:02;20.40;99.90
11003;DHT22;5554;55.796;13.090;2022-10-23T03:38:29;20.30;99.90
11003;DHT22;5554;55.796;13.090;2022-10-23T03:40:56;20.30;99.90
11003;DHT22;5554;55.796;13.090;2022-10-23T03:43:22;20.20;99.90
11003;DHT22;5554;55.796;13.090;2022-10-23T03:45:50;20.20;99.90
11003;DHT22;5554;55.796;13.090;2022-10-23T03:48:17;20.20;99.90
11003;DHT22;5554;55.796;13.090;2022-10-23T03:50:43;20.10;99.90
11003;DHT22;5554;55.796;13.090;2022-10-23T03:53:10;20.10;99.90
11003;DHT22;5554;55.796;13.090;2022-10-23T03:55:37;20.10;99.90
11003;DHT22;5554;55.796;13.090;2022-10-23T03:58:03;20.10;99.90
11003;DHT22;5554;55.796;13.090;2022-10-23T04:00:30;20.10;99.90
11003;DHT22;5554;55.796;13.090;2022-10-23T04:02:58;20.10;99.90
11003;DHT22;5554;55.796;13.090;2022-10-23T04:05:25;20.10;99.90
11003;DHT22;5554;55.796;13.090;2022-10-23T04:07:51;20.10;99.90
11003;DHT22;5554;55.796;13.090;2022-10-23T04:10:18;20.10;99.90
11003;DHT22;5554;55.796;13.090;2022-10-23T04:12:44;20.00;99.90
11003;DHT22;5554;55.796;13.090;2022-10-23T04:15:11;20.00;99.90
11003;DHT22;5554;55.796;13.090;2022-10-23T04:17:38;20.00;99.90
11003;DHT22;5554;55.796;13.090;2022-10-23T04:20:06;20.00;99.90
11003;DHT22;5554;55.796;13.090;2022-10-23T04:22:33;19.90;99.90
11003;DHT22;5554;55.796;13.090;2022-10-23T04:24:59;20.00;99.90
11003;DHT22;5554;55.796;13.090;2022-10-23T04:27:26;20.00;99.90
11003;DHT22;5554;55.796;13.090;2022-10-23T04:29:52;19.90;99.90
11003;DHT22;5554;55.796;13.090;2022-10-23T04:32:19;20.00;99.90
11003;DHT22;5554;55.796;13.090;2022-10-23T04:34:46;20.00;99.90
11003;DHT22;5554;55.796;13.090;2022-10-23T04:37:14;20.00;99.90
11003;DHT22;5554;55.796;13.090;2022-10-23T04:39:40;19.90;99.90
11003;DHT22;5554;55.796;13.090;2022-10-23T04:42:07;19.90;99.90
11003;DHT22;5554;55.796;13.090;2022-10-23T04:44:34;19.90;99.90
11003;DHT22;5554;55.796;13.090;2022-10-23T04:47:00;19.90;99.90
11003;DHT22;5554;55.796;13.090;2022-10-23T04:49:27;19.80;99.90
11003;DHT22;5554;55.796;13.090;2022-10-23T04:51:53;19.90;99.90
11003;DHT22;5554;55.796;13.090;2022-10-23T04:54:21;19.80;99.90
11003;DHT22;5554;55.796;13.090;2022-10-23T04:56:48;19.90;99.90
11003;DHT22;5554;55.796;13.090;2022-10-23T04:59:15;19.90;99.90
11003;DHT22;5554;55.796;13.090;2022-10-23T05:01:41;19.80;99.90
11003;DHT22;5554;55.796;13.090;2022-10-23T05:04:08;19.80;99.90
11003;DHT22;5554;55.796;13.090;2022-10-23T05:06:35;19.80;99.90
11003;DHT22;5554;55.796;13.090;2022-10-23T05:09:01;19.80;99.90
11003;DHT22;5554;55.796;13.090;2022-10-23T05:11:30;19.80;99.90
11003;DHT22;5554;55.796;13.090;2022-10-23T05:13:56;19.90;99.90
11003;DHT22;5554;55.796;13.090;2022-10-23T05:16:26;19.80;99.90
11003;DHT22;5554;55.796;13.090;2022-10-23T05:18:54;19.80;99.90
11003;DHT22;5554;55.796;13.090;2022-10-23T05:21:22;19.70;99.90
11003;DHT22;5554;55.796;13.090;2022-10-23T05:23:50;19.70;99.90
11003;DHT22;5554;55.796;13.090;2022-10-23T05:26:17;19.60;99.90
11003;DHT22;5554;55.796;13.090;2022-10-23T05:28:45;19.60;99.90
11003;DHT22;5554;55.796;13.090;2022-10-23T05:31:12;19.60;99.90
11003;DHT22;5554;55.796;13.090;2022-10-23T05:33:39;19.50;99.90
11003;DHT22;5554;55.796;13.090;2022-10-23T05:36:06;19.60;99.90
11003;DHT22;5554;55.796;13.090;2022-10-23T05:38:34;19.60;99.90
11003;DHT22;5554;55.796;13.090;2022-10-23T05:41:00;19.60;99.90
11003;DHT22;5554;55.796;13.090;2022-10-23T05:43:27;19.60;99.90
11003;DHT22;5554;55.796;13.090;2022-10-23T05:45:56;19.50;99.90
11003;DHT22;5554;55.796;13.090;2022-10-23T05:48:23;19.50;99.90
11003;DHT22;5554;55.796;13.090;2022-10-23T05:50:50;19.50;99.90
11003;DHT22;5554;55.796;13.090;2022-10-23T05:53:16;19.50;99.90
11003;DHT22;5554;55.796;13.090;2022-10-23T05:55:43;19.50;99.90
11003;DHT22;5554;55.796;13.090;2022-10-23T05:58:10;19.60;99.90
11003;DHT22;5554;55.796;13.090;2022-10-23T06:00:36;19.40;99.90
11003;DHT22;5554;55.796;13.090;2022-10-23T06:03:04;19.50;99.90
11003;DHT22;5554;55.796;13.090;2022-10-23T06:05:31;19.50;99.90
11003;DHT22;5554;55.796;13.090;2022-10-23T06:07:58;19.50;99.90
11003;DHT22;5554;55.796;13.090;2022-10-23T06:10:24;19.50;99.90
11003;DHT22;5554;55.796;13.090;2022-10-23T06:12:51;19.40;99.90
11003;DHT22;5554;55.796;13.090;2022-10-23T06:15:18;19.50;99.90
11003;DHT22;5554;55.796;13.090;2022-10-23T06:17:44;19.40;99.90
11003;DHT22;5554;55.796;13.090;2022-10-23T06:20:12;19.30;99.90
11003;DHT22;5554;55.796;13.090;2022-10-23T06:22:39;19.30;99.90
11003;DHT22;5554;55.796;13.090;2022-10-23T06:25:06;19.40;99.90
11003;DHT22;5554;55.796;13.090;2022-10-23T06:27:33;19.40;99.90
11003;DHT22;5554;55.796;13.090;2022-10-23T06:30:00;19.40;99.90
11003;DHT22;5554;55.796;13.090;2022-10-23T06:32:29;19.40;99.90
11003;DHT22;5554;55.796;13.090;2022-10-23T06:34:56;19.40;99.90
11003;DHT22;5554;55.796;13.090;2022-10-23T06:37:24;19.30;99.90
11003;DHT22;5554;55.796;13.090;2022-10-23T06:39:51;19.20;99.90
11003;DHT22;5554;55.796;13.090;2022-10-23T06:42:17;19.20;99.90
11003;DHT22;5554;55.796;13.090;2022-10-23T06:44:44;19.10;99.90
11003;DHT22;5554;55.796;13.090;2022-10-23T06:47:10;19.10;99.90
11003;DHT22;5554;55.796;13.090;2022-10-23T06:49:38;19.10;99.90
11003;DHT22;5554;55.796;13.090;2022-10-23T06:52:05;19.00;99.90
11003;DHT22;5554;55.796;13.090;2022-10-23T06:54:33;18.90;99.90
11003;DHT22;5554;55.796;13.090;2022-10-23T06:56:59;18.70;99.90
11003;DHT22;5554;55.796;13.090;2022-10-23T06:59:26;18.60;99.90
11003;DHT22;5554;55.796;13.090;2022-10-23T07:01:53;18.70;99.90
11003;DHT22;5554;55.796;13.090;2022-10-23T07:04:19;18.70;99.90
11003;DHT22;5554;55.796;13.090;2022-10-23T07:06:46;18.50;99.90
11003;DHT22;5554;55.796;13.090;2022-10-23T07:09:13;18.70;99.90
11003;DHT22;5554;55.796;13.090;2022-10-23T07:11:40;18.80;99.90
11003;DHT22;5554;55.796;13.090;2022-10-23T07:14:07;18.90;99.90
11003;DHT22;5554;55.796;13.090;2022-10-23T07:16:34;18.90;99.90
11003;DHT22;5554;55.796;13.090;2022-10-23T07:19:00;18.90;99.90
11003;DHT22;5554;55.796;13.090;2022-10-23T07:21:28;18.80;99.90
11003;DHT22;5554;55.796;13.090;2022-10-23T07:23:56;18.90;99.90
11003;DHT22;5554;55.796;13.090;2022-10-23T07:26:22;18.90;99.90
11003;DHT22;5554;55.796;13.090;2022-10-23T07:28:50;18.80;99.90
11003;DHT22;5554;55.796;13.090;2022-10-23T07:31:19;18.70;99.90
11003;DHT22;5554;55.796;13.090;2022-10-23T07:33:46;18.80;99.90
11003;DHT22;5554;55.796;13.090;2022-10-23T07:36:12;18.80;99.90
11003;DHT22;5554;55.796;13.090;2022-10-23T07:38:39;18.70;99.90
11003;DHT22;5554;55.796;13.090;2022-10-23T07:41:06;18.70;99.90
11003;DHT22;5554;55.796;13.090;2022-10-23T07:43:32;18.70;99.90
11003;DHT22;5554;55.796;13.090;2022-10-23T07:46:01;18.80;99.90
11003;DHT22;5554;55.796;13.090;2022-10-23T07:48:27;18.90;99.90
11003;DHT22;5554;55.796;13.090;2022-10-23T07:50:56;18.80;99.90
11003;DHT22;5554;55.796;13.090;2022-10-23T07:53:25;18.80;99.90
11003;DHT22;5554;55.796;13.090;2022-10-23T07:55:52;18.60;99.90
11003;DHT22;5554;55.796;13.090;2022-10-23T07:58:19;18.50;99.90
11003;DHT22;5554;55.796;13.090;2022-10-23T08:00:45;18.60;99.90
11003;DHT22;5554;55.796;13.090;2022-10-23T08:03:18;18.80;99.90
11003;DHT22;5554;55.796;13.090;2022-10-23T08:05:45;18.70;99.90
11003;DHT22;5554;55.796;13.090;2022-10-23T08:08:12;18.60;99.90
11003;DHT22;5554;55.796;13.090;2022-10-23T08:10:38;18.70;99.90
11003;DHT22;5554;55.796;13.090;2022-10-23T08:13:06;18.80;99.90
11003;DHT22;5554;55.796;13.090;2022-10-23T08:15:32;19.00;99.90
11003;DHT22;5554;55.796;13.090;2022-10-23T08:17:59;19.00;99.90
11003;DHT22;5554;55.796;13.090;2022-10-23T08:20:27;18.90;99.90
11003;DHT22;5554;55.796;13.090;2022-10-23T08:22:54;19.00;99.90
11003;DHT22;5554;55.796;13.090;2022-10-23T08:25:20;18.80;99.90
11003;DHT22;5554;55.796;13.090;2022-10-23T08:27:47;18.80;99.90
11003;DHT22;5554;55.796;13.090;2022-10-23T08:30:14;18.50;99.90
11003;DHT22;5554;55.796;13.090;2022-10-23T08:32:40;18.30;99.90
11003;DHT22;5554;55.796;13.090;2022-10-23T08:35:07;18.20;99.90
11003;DHT22;5554;55.796;13.090;2022-10-23T08:37:35;18.00;99.90
11003;DHT22;5554;55.796;13.090;2022-10-23T08:40:02;17.80;99.90
11003;DHT22;5554;55.796;13.090;2022-10-23T08:42:29;17.90;99.90
11003;DHT22;5554;55.796;13.090;2022-10-23T08:44:58;17.80;99.90
11003;DHT22;5554;55.796;13.090;2022-10-23T08:47:27;17.90;99.90
11003;DHT22;5554;55.796;13.090;2022-10-23T08:49:58;17.80;99.90
11003;DHT22;5554;55.796;13.090;2022-10-23T08:52:34;17.70;99.90
11003;DHT22;5554;55.796;13.090;2022-10-23T08:55:08;17.60;99.90
11003;DHT22;5554;55.796;13.090;2022-10-23T08:57:40;17.50;99.90
11003;DHT22;5554;55.796;13.090;2022-10-23T09:00:11;17.40;99.90
11003;DHT22;5554;55.796;13.090;2022-10-23T09:02:39;17.40;99.90
11003;DHT22;5554;55.796;13.090;2022-10-23T09:05:10;17.50;99.90
11003;DHT22;5554;55.796;13.090;2022-10-23T09:07:39;17.40;99.90
11003;DHT22;5554;55.796;13.090;2022-10-23T09:10:16;17.40;99.90
11003;DHT22;5554;55.796;13.090;2022-10-23T09:12:44;17.30;99.90
11003;DHT22;5554;55.796;13.090;2022-10-23T09:15:16;17.20;99.90
11003;DHT22;5554;55.796;13.090;2022-10-23T09:17:45;17.10;99.90
11003;DHT22;5554;55.796;13.090;2022-10-23T09:20:15;17.10;99.90
11003;DHT22;5554;55.796;13.090;2022-10-23T09:22:43;17.10;99.90
11003;DHT22;5554;55.796;13.090;2022-10-23T09:25:14;16.90;99.90
11003;DHT22;5554;55.796;13.090;2022-10-23T09:27:45;16.80;99.90
11003;DHT22;5554;55.796;13.090;2022-10-23T09:30:23;16.80;99.90
11003;DHT22;5554;55.796;13.090;2022-10-23T09:32:50;16.70;99.90
11003;DHT22;5554;55.796;13.090;2022-10-23T09:35:20;16.70;99.90
11003;DHT22;5554;55.796;13.090;2022-10-23T09:37:46;16.50;99.90
11003;DHT22;5554;55.796;13.090;2022-10-23T09:40:18;16.50;99.90
11003;DHT22;5554;55.796;13.090;2022-10-23T09:42:54;16.70;99.90
11003;DHT22;5554;55.796;13.090;2022-10-23T09:45:25;16.70;99.90
11003;DHT22;5554;55.796;13.090;2022-10-23T09:48:02;16.20;99.90
11003;DHT22;5554;55.796;13.090;2022-10-23T09:50:28;15.20;99.90
11003;DHT22;5554;55.796;13.090;2022-10-23T09:52:55;14.90;99.90
11003;DHT22;5554;55.796;13.090;2022-10-23T09:55:22;14.40;99.90
11003;DHT22;5554;55.796;13.090;2022-10-23T09:57:50;14.20;99.90
11003;DHT22;5554;55.796;13.090;2022-10-23T10:00:19;14.20;99.90
11003;DHT22;5554;55.796;13.090;2022-10-23T10:02:53;13.90;99.90
11003;DHT22;5554;55.796;13.090;2022-10-23T10:05:22;13.70;99.90
11003;DHT22;5554;55.796;13.090;2022-10-23T10:07:53;13.80;99.90
11003;DHT22;5554;55.796;13.090;2022-10-23T10:10:21;13.70;99.90
11003;DHT22;5554;55.796;13.090;2022-10-23T10:12:48;13.80;99.90
11003;DHT22;5554;55.796;13.090;2022-10-23T10:15:18;13.70;99.90
11003;DHT22;5554;55.796;13.090;2022-10-23T10:17:48;13.70;99.90
11003;DHT22;5554;55.796;13.090;2022-10-23T10:20:20;13.80;99.90
11003;DHT22;5554;55.796;13.090;2022-10-23T10:22:50;13.90;99.90
11003;DHT22;5554;55.796;13.090;2022-10-23T10:25:19;13.80;99.90
11003;DHT22;5554;55.796;13.090;2022-10-23T10:27:51;13.50;99.90
11003;DHT22;5554;55.796;13.090;2022-10-23T10:30:21;13.40;99.90
11003;DHT22;5554;55.796;13.090;2022-10-23T10:32:50;13.10;99.90
11003;DHT22;5554;55.796;13.090;2022-10-23T10:35:21;12.80;99.90
11003;DHT22;5554;55.796;13.090;2022-10-23T10:37:53;12.70;99.90
11003;DHT22;5554;55.796;13.090;2022-10-23T10:40:23;12.50;99.90
11003;DHT22;5554;55.796;13.090;2022-10-23T10:42:55;12.50;99.90
11003;DHT22;5554;55.796;13.090;2022-10-23T10:45:31;12.60;99.90
11003;DHT22;5554;55.796;13.090;2022-10-23T10:48:02;12.50;99.90
11003;DHT22;5554;55.796;13.090;2022-10-23T10:50:36;12.50;99.90
11003;DHT22;5554;55.796;13.090;2022-10-23T10:53:08;12.30;99.90
11003;DHT22;5554;55.796;13.090;2022-10-23T10:55:41;12.50;99.90
11003;DHT22;5554;55.796;13.090;2022-10-23T10:58:09;12.50;99.90
11003;DHT22;5554;55.796;13.090;2022-10-23T11:00:42;12.50;99.90
11003;DHT22;5554;55.796;13.090;2022-10-23T11:03:21;12.40;99.90
11003;DHT22;5554;55.796;13.090;2022-10-23T11:05:50;12.50;99.90
11003;DHT22;5554;55.796;13.090;2022-10-23T11:08:18;12.40;99.90
11003;DHT22;5554;55.796;13.090;2022-10-23T11:10:49;12.20;99.90
11003;DHT22;5554;55.796;13.090;2022-10-23T11:13:21;12.20;99.90
11003;DHT22;5554;55.796;13.090;2022-10-23T11:15:51;12.20;99.90
11003;DHT22;5554;55.796;13.090;2022-10-23T11:18:21;12.40;99.90
11003;DHT22;5554;55.796;13.090;2022-10-23T11:20:53;12.30;99.90
11003;DHT22;5554;55.796;13.090;2022-10-23T11:26:11;12.40;99.90
11003;DHT22;5554;55.796;13.090;2022-10-23T11:28:48;12.30;99.90
11003;DHT22;5554;55.796;13.090;2022-10-23T11:31:22;12.50;99.90
11003;DHT22;5554;55.796;13.090;2022-10-23T11:33:54;12.40;99.90
11003;DHT22;5554;55.796;13.090;2022-10-23T11:36:31;12.20;99.90
11003;DHT22;5554;55.796;13.090;2022-10-23T11:39:06;12.20;99.90
11003;DHT22;5554;55.796;13.090;2022-10-23T11:41:45;12.10;99.90
11003;DHT22;5554;55.796;13.090;2022-10-23T11:44:22;12.10;99.90
11003;DHT22;5554;55.796;13.090;2022-10-23T11:46:57;12.10;99.90
11003;DHT22;5554;55.796;13.090;2022-10-23T11:49:25;12.20;99.90
11003;DHT22;5554;55.796;13.090;2022-10-23T11:51:58;12.20;99.90
11003;DHT22;5554;55.796;13.090;2022-10-23T11:54:24;12.10;99.90
11003;DHT22;5554;55.796;13.090;2022-10-23T11:56:53;12.20;99.90
11003;DHT22;5554;55.796;13.090;2022-10-23T11:59:21;12.30;99.90
11003;DHT22;5554;55.796;13.090;2022-10-23T12:01:50;12.20;99.90
11003;DHT22;5554;55.796;13.090;2022-10-23T12:04:19;12.20;99.90
11003;DHT22;5554;55.796;13.090;2022-10-23T12:06:48;12.20;99.90
11003;DHT22;5554;55.796;13.090;2022-10-23T12:09:21;12.10;99.90
11003;DHT22;5554;55.796;13.090;2022-10-23T12:11:48;12.00;99.90
11003;DHT22;5554;55.796;13.090;2022-10-23T12:14:27;12.00;99.90
11003;DHT22;5554;55.796;13.090;2022-10-23T12:16:55;12.10;99.90
11003;DHT22;5554;55.796;13.090;2022-10-23T12:19:23;12.10;99.90
11003;DHT22;5554;55.796;13.090;2022-10-23T12:21:51;12.20;99.90
11003;DHT22;5554;55.796;13.090;2022-10-23T12:24:26;12.20;99.90
11003;DHT22;5554;55.796;13.090;2022-10-23T12:27:05;12.10;99.90
11003;DHT22;5554;55.796;13.090;2022-10-23T12:29:42;12.20;99.90
11003;DHT22;5554;55.796;13.090;2022-10-23T12:32:19;12.30;99.90
11003;DHT22;5554;55.796;13.090;2022-10-23T12:34:49;12.30;99.90
11003;DHT22;5554;55.796;13.090;2022-10-23T12:37:34;12.40;99.90
11003;DHT22;5554;55.796;13.090;2022-10-23T12:40:06;12.50;99.90
11003;DHT22;5554;55.796;13.090;2022-10-23T12:42:33;12.70;99.90
11003;DHT22;5554;55.796;13.090;2022-10-23T12:45:01;12.70;99.90
11003;DHT22;5554;55.796;13.090;2022-10-23T12:47:30;12.60;99.90
11003;DHT22;5554;55.796;13.090;2022-10-23T12:49:56;12.70;99.90
11003;DHT22;5554;55.796;13.090;2022-10-23T12:52:23;12.70;99.90
11003;DHT22;5554;55.796;13.090;2022-10-23T12:54:50;12.70;99.90
11003;DHT22;5554;55.796;13.090;2022-10-23T12:57:18;12.60;99.90
11003;DHT22;5554;55.796;13.090;2022-10-23T12:59:45;12.60;99.90
11003;DHT22;5554;55.796;13.090;2022-10-23T13:02:13;12.70;99.90
11003;DHT22;5554;55.796;13.090;2022-10-23T13:04:48;12.60;99.90
11003;DHT22;5554;55.796;13.090;2022-10-23T13:07:15;12.60;99.90
11003;DHT22;5554;55.796;13.090;2022-10-23T13:09:44;12.60;99.90
11003;DHT22;5554;55.796;13.090;2022-10-23T13:12:15;12.50;99.90
11003;DHT22;5554;55.796;13.090;2022-10-23T13:14:53;12.70;99.90
11003;DHT22;5554;55.796;13.090;2022-10-23T13:17:20;12.90;99.90
11003;DHT22;5554;55.796;13.090;2022-10-23T13:19:48;13.00;99.90
11003;DHT22;5554;55.796;13.090;2022-10-23T13:22:16;12.90;99.90
11003;DHT22;5554;55.796;13.090;2022-10-23T13:24:43;12.70;99.90
11003;DHT22;5554;55.796;13.090;2022-10-23T13:27:22;12.70;99.90
11003;DHT22;5554;55.796;13.090;2022-10-23T13:29:50;12.70;99.90
11003;DHT22;5554;55.796;13.090;2022-10-23T13:32:20;12.50;99.90
11003;DHT22;5554;55.796;13.090;2022-10-23T13:34:51;12.50;99.90
11003;DHT22;5554;55.796;13.090;2022-10-23T13:37:21;12.40;99.90
11003;DHT22;5554;55.796;13.090;2022-10-23T13:39:57;12.40;99.90
11003;DHT22;5554;55.796;13.090;2022-10-23T13:42:24;12.30;99.90
11003;DHT22;5554;55.796;13.090;2022-10-23T13:44:50;12.30;99.90
11003;DHT22;5554;55.796;13.090;2022-10-23T13:47:17;12.30;99.90
11003;DHT22;5554;55.796;13.090;2022-10-23T13:49:44;12.20;99.90
11003;DHT22;5554;55.796;13.090;2022-10-23T13:52:12;12.20;99.90
11003;DHT22;5554;55.796;13.090;2022-10-23T13:54:39;12.20;99.90
11003;DHT22;5554;55.796;13.090;2022-10-23T13:57:08;12.30;99.90
11003;DHT22;5554;55.796;13.090;2022-10-23T13:59:37;12.20;99.90
11003;DHT22;5554;55.796;13.090;2022-10-23T14:02:05;12.30;99.90
11003;DHT22;5554;55.796;13.090;2022-10-23T14:04:39;12.20;99.90
11003;DHT22;5554;55.796;13.090;2022-10-23T14:07:06;12.20;99.90
11003;DHT22;5554;55.796;13.090;2022-10-23T14:09:33;12.20;99.90
11003;DHT22;5554;55.796;13.090;2022-10-23T14:12:00;12.20;99.90
11003;DHT22;5554;55.796;13.090;2022-10-23T14:14:27;12.10;99.90
11003;DHT22;5554;55.796;13.090;2022-10-23T14:16:53;12.10;99.90
11003;DHT22;5554;55.796;13.090;2022-10-23T14:19:20;12.10;99.90
11003;DHT22;5554;55.796;13.090;2022-10-23T14:21:47;12.00;99.90
11003;DHT22;5554;55.796;13.090;2022-10-23T14:24:13;12.10;99.90
11003;DHT22;5554;55.796;13.090;2022-10-23T14:26:41;12.00;99.90
11003;DHT22;5554;55.796;13.090;2022-10-23T14:29:08;12.00;99.90
11003;DHT22;5554;55.796;13.090;2022-10-23T14:31:35;12.00;99.90
11003;DHT22;5554;55.796;13.090;2022-10-23T14:34:01;12.00;99.90
11003;DHT22;5554;55.796;13.090;2022-10-23T14:36:28;12.00;99.90
11003;DHT22;5554;55.796;13.090;2022-10-23T14:38:55;12.00;99.90
11003;DHT22;5554;55.796;13.090;2022-10-23T14:41:22;12.00;99.90
11003;DHT22;5554;55.796;13.090;2022-10-23T14:43:50;12.00;99.90
11003;DHT22;5554;55.796;13.090;2022-10-23T14:46:17;12.00;99.90
11003;DHT22;5554;55.796;13.090;2022-10-23T14:48:44;11.90;99.90
11003;DHT22;5554;55.796;13.090;2022-10-23T14:51:15;11.90;99.90
11003;DHT22;5554;55.796;13.090;2022-10-23T14:53:42;11.80;99.90
11003;DHT22;5554;55.796;13.090;2022-10-23T14:56:08;11.80;99.90
11003;DHT22;5554;55.796;13.090;2022-10-23T14:58:35;11.70;99.90
11003;DHT22;5554;55.796;13.090;2022-10-23T15:01:03;11.70;99.90
11003;DHT22;5554;55.796;13.090;2022-10-23T15:03:30;11.70;99.90
11003;DHT22;5554;55.796;13.090;2022-10-23T15:05:57;11.70;99.90
11003;DHT22;5554;55.796;13.090;2022-10-23T15:08:23;11.70;99.90
11003;DHT22;5554;55.796;13.090;2022-10-23T15:10:50;11.60;99.90
11003;DHT22;5554;55.796;13.090;2022-10-23T15:13:17;11.60;99.90
11003;DHT22;5554;55.796;13.090;2022-10-23T15:15:43;11.50;99.90
11003;DHT22;5554;55.796;13.090;2022-10-23T15:18:11;11.50;99.90
11003;DHT22;5554;55.796;13.090;2022-10-23T15:20:39;11.40;99.90
11003;DHT22;5554;55.796;13.090;2022-10-23T15:23:05;11.40;99.90
11003;DHT22;5554;55.796;13.090;2022-10-23T15:25:32;11.40;99.90
11003;DHT22;5554;55.796;13.090;2022-10-23T15:27:59;11.30;99.90
11003;DHT22;5554;55.796;13.090;2022-10-23T15:30:26;11.30;99.90
11003;DHT22;5554;55.796;13.090;2022-10-23T15:32:52;11.30;99.90
11003;DHT22;5554;55.796;13.090;2022-10-23T15:35:20;11.20;99.90
11003;DHT22;5554;55.796;13.090;2022-10-23T15:37:48;11.10;99.90
11003;DHT22;5554;55.796;13.090;2022-10-23T15:40:15;11.10;99.90
11003;DHT22;5554;55.796;13.090;2022-10-23T15:42:41;11.00;99.90